Chanute Martin Johnson Airport
KCNU : now visible

Airfield :











YOU CAN JOIN US ON...

 
LOGIN :

Register | Disclaimer

   EN    FR    IT 

 









Legend :    VFR   Marginal VFR   IFR   Intensive IFR   Very Intensive IFR
Visi :
Ceiling :
>= 8 km
>= 3000ft
5 to 8 km
1000 to 3000 ft
1500m to 5 km
500 to 1000 ft
800 to 1500m
200 to 500 ft
< 800m
< 200 ft
Symbols :   Thunderstorms  Fog  Heavy snow  Heavy precipitations  Wind > 20 kt






- Airport Elevation : 1002 ft


KCNU - Chanute Martin Johnson

CURRENT METAR :
  • 091830Z AUTO 34015G26KT 10SM SCT019 04/M04 A2987 RMK AO2 PK WND 34029/1754 T00391039

EXPIRED METARs :
  • 091752Z AUTO 34020G31KT 10SM OVC015 02/M03 A2986 RMK AO2 PK WND 35031/1657 SLP114 T00221028 10094 20022 51055
  • 091713Z AUTO 33020G29KT 10SM OVC011 03/M01 A2984 RMK AO2 PK WND 35031/1657 T00331006
  • 091652Z AUTO 34017G28KT 9SM OVC008 03/01 A2983 RMK AO2 PK WND 34030/1611 SLP102 T00330006
  • 091637Z AUTO 33017G30KT 9SM OVC009 03/01 A2982 RMK AO2 PK WND 34030/1611 T00330006
  • 091552Z AUTO 33017G31KT 10SM OVC012 06/02 A2978 RMK AO2 PK WND 34032/1515 PRESRR SLP084 T00610022

TAF KCNU
Valid from the 09 at 18:00 until the 10 at 18:00 UTC


091736Z 0918/1018 34020G30KT P6SM BKN015
FM091900 34021G29KT P6SM SCT025 BKN130
FM092300 34016G24KT P6SM BKN250
FM100100 34013KT P6SM SCT250
FM100500 33006KT P6SM SCT250



MET'MAP, your aeronautical weather chart ! - Copyright ORBIFLY December 2007 - Disclaimer

ORBIFLY MET'MAP TEAM :

Programming & Development : Alexandra Zaïnal
Concept & original design : Baudouin d'Aumeries
Assistance for programming : Marc-Olivier Méhu
Technical & hardware support : Manuel Goepfert

Contact : metmap@orbifly.com




SOURCES & CREDITS :

   NOAA       Earth
Advisory